Time;durP1;ratioP1;P1;durP2;ratioP2;P2;SDS_P1;SDS_P2;PMS_P1;PMS_P2;Temp;Humidity;BMP_temperature;BMP_pressure;BME280_temperature;BME280_humidity;BME280_pressure;Samples;Min_cycle;Max_cycle;Signal;HPM_P1;HPM_P2
2022/01/03 00:00:48;;;;;;;;;;;9.80;99.90;;;;;;5040763;28;21225;-69
2022/01/03 00:03:14;;;;;;;;;;;9.80;99.90;;;;;;5050786;28;19915;-69
2022/01/03 00:05:40;;;;;;;;;;;9.80;99.90;;;;;;5044938;28;20394;-69
2022/01/03 00:08:06;;;;;;;;;;;9.80;99.90;;;;;;5045015;28;20035;-68
2022/01/03 00:10:35;;;;;;;;;;;9.80;99.90;;;;;;5045901;28;20539;-69
2022/01/03 00:13:01;;;;;;;;;;;9.70;99.90;;;;;;5032699;28;20373;-68
2022/01/03 00:15:27;;;;;;;;;;;9.80;99.90;;;;;;5047127;28;19916;-69
2022/01/03 00:17:53;;;;;;;;;;;9.80;99.90;;;;;;5051140;28;20339;-69
2022/01/03 00:20:20;;;;;;;;;;;9.80;99.90;;;;;;5046692;28;20425;-69
2022/01/03 00:22:51;;;;;;;;;;;9.70;99.90;;;;;;5048502;28;19917;-69
2022/01/03 00:25:18;;;;;;;;;;;9.70;99.90;;;;;;5043798;28;19913;-69
2022/01/03 00:27:43;;;;;;;;;;;9.70;99.90;;;;;;5049980;28;19916;-69
2022/01/03 00:30:09;;;;;;;;;;;9.70;99.90;;;;;;5047580;28;19917;-69
2022/01/03 00:32:37;;;;;;;;;;;9.70;99.90;;;;;;5051640;28;19920;-69
2022/01/03 00:35:02;;;;;;;;;;;9.70;99.90;;;;;;5034681;28;19920;-69
2022/01/03 00:37:28;;;;;;;;;;;9.70;99.90;;;;;;5054042;28;19927;-69
2022/01/03 00:39:54;;;;;;;;;;;9.70;99.90;;;;;;5066687;28;19916;-69
2022/01/03 00:42:21;;;;;;;;;;;9.70;99.90;;;;;;5051945;28;19921;-69
2022/01/03 00:44:46;;;;;;;;;;;9.70;99.90;;;;;;5049702;28;19916;-69
2022/01/03 00:47:12;;;;;;;;;;;9.70;99.90;;;;;;5028409;28;20490;-69
2022/01/03 00:49:41;;;;;;;;;;;9.70;99.90;;;;;;5050024;28;19956;-70
2022/01/03 00:52:06;;;;;;;;;;;9.70;99.90;;;;;;5047496;28;19917;-70
2022/01/03 00:54:32;;;;;;;;;;;9.70;99.90;;;;;;5057741;28;20008;-69
2022/01/03 00:57:02;;;;;;;;;;;9.60;99.90;;;;;;5050528;28;19928;-69
2022/01/03 00:59:32;;;;;;;;;;;9.60;99.90;;;;;;5050061;28;19913;-69
2022/01/03 01:01:58;;;;;;;;;;;9.70;99.90;;;;;;5049144;28;19971;-69
2022/01/03 01:04:24;;;;;;;;;;;9.70;99.90;;;;;;5037751;28;19952;-69
2022/01/03 01:06:54;;;;;;;;;;;9.60;99.90;;;;;;5031179;28;19966;-69
2022/01/03 01:09:21;;;;;;;;;;;9.70;99.90;;;;;;5052418;28;19944;-69
2022/01/03 01:11:46;;;;;;;;;;;9.60;99.90;;;;;;5050336;28;19925;-69
2022/01/03 01:14:12;;;;;;;;;;;9.60;99.90;;;;;;5073916;28;20444;-69
2022/01/03 01:16:38;;;;;;;;;;;9.60;99.90;;;;;;5036250;28;20810;-69
2022/01/03 01:19:04;;;;;;;;;;;9.60;99.90;;;;;;5060101;28;20031;-69
2022/01/03 01:21:30;;;;;;;;;;;9.60;99.90;;;;;;5051144;28;19920;-69
2022/01/03 01:23:57;;;;;;;;;;;9.60;99.90;;;;;;5052370;28;19939;-69
2022/01/03 01:29:07;;;;;;;;;;;9.60;99.90;;;;;;5052494;28;19927;-69
2022/01/03 01:31:35;;;;;;;;;;;9.60;99.90;;;;;;5051311;28;19952;-69
2022/01/03 01:34:02;;;;;;;;;;;9.60;99.90;;;;;;5048423;28;19916;-69
2022/01/03 01:36:28;;;;;;;;;;;9.60;99.90;;;;;;5048215;28;19921;-69
2022/01/03 01:38:58;;;;;;;;;;;9.60;99.90;;;;;;5049715;28;19986;-69
2022/01/03 01:41:26;;;;;;;;;;;9.50;99.90;;;;;;5051051;28;19921;-69
2022/01/03 01:43:52;;;;;;;;;;;9.50;99.90;;;;;;5051704;28;19919;-69
2022/01/03 01:46:21;;;;;;;;;;;9.50;99.90;;;;;;5050293;28;19926;-69
2022/01/03 01:48:48;;;;;;;;;;;9.50;99.90;;;;;;5050000;28;19959;-69
2022/01/03 01:51:15;;;;;;;;;;;9.50;99.90;;;;;;5053359;28;19944;-69
2022/01/03 01:53:45;;;;;;;;;;;9.50;99.90;;;;;;5033974;28;20293;-69
2022/01/03 01:56:14;;;;;;;;;;;9.50;99.90;;;;;;5049598;28;19916;-69
2022/01/03 01:58:49;;;;;;;;;;;9.50;99.90;;;;;;5050327;28;20338;-69
2022/01/03 02:01:15;;;;;;;;;;;9.50;99.90;;;;;;5035089;28;19919;-70
2022/01/03 02:03:40;;;;;;;;;;;9.50;99.90;;;;;;5049766;28;19970;-69
2022/01/03 02:06:09;;;;;;;;;;;9.50;99.90;;;;;;5052740;28;19913;-69
2022/01/03 02:08:41;;;;;;;;;;;9.50;99.90;;;;;;5050612;28;19920;-68
2022/01/03 02:11:27;;;;;;;;;;;9.50;99.90;;;;;;5049597;28;19973;-69
2022/01/03 02:13:53;;;;;;;;;;;9.50;99.90;;;;;;5052181;28;19921;-69
2022/01/03 02:16:18;;;;;;;;;;;9.50;99.90;;;;;;5052525;28;20297;-69
2022/01/03 02:18:44;;;;;;;;;;;9.50;99.90;;;;;;5050555;28;19912;-69
2022/01/03 02:21:10;;;;;;;;;;;9.50;99.90;;;;;;5050945;28;19928;-69
2022/01/03 02:23:35;;;;;;;;;;;9.50;99.90;;;;;;5052050;28;20057;-69
2022/01/03 02:26:01;;;;;;;;;;;9.40;99.90;;;;;;5050180;28;19955;-68
2022/01/03 02:28:27;;;;;;;;;;;9.40;99.90;;;;;;5054779;28;19920;-68
2022/01/03 02:30:52;;;;;;;;;;;9.40;99.90;;;;;;5048119;28;20412;-68
2022/01/03 02:33:18;;;;;;;;;;;9.40;99.90;;;;;;5055104;28;20418;-68
2022/01/03 02:35:44;;;;;;;;;;;9.40;99.90;;;;;;5048524;28;19966;-69
2022/01/03 02:38:10;;;;;;;;;;;9.50;99.90;;;;;;5052034;28;19916;-69
2022/01/03 02:40:35;;;;;;;;;;;9.40;99.90;;;;;;5052317;28;20058;-69
2022/01/03 02:43:02;;;;;;;;;;;9.40;99.90;;;;;;5049309;28;20423;-69
2022/01/03 02:45:27;;;;;;;;;;;9.40;99.90;;;;;;5046730;28;19917;-69
2022/01/03 02:47:54;;;;;;;;;;;9.40;99.90;;;;;;5048931;28;19923;-69
2022/01/03 02:50:21;;;;;;;;;;;9.40;99.90;;;;;;5047648;28;19917;-69
2022/01/03 02:52:46;;;;;;;;;;;9.40;99.90;;;;;;5050224;28;20318;-69
2022/01/03 02:55:12;;;;;;;;;;;9.40;99.90;;;;;;5048258;28;19917;-69
2022/01/03 02:57:42;;;;;;;;;;;9.40;99.90;;;;;;5051820;28;19931;-69
2022/01/03 03:00:10;;;;;;;;;;;9.40;99.90;;;;;;5052110;28;19921;-69
2022/01/03 03:02:35;;;;;;;;;;;9.40;99.90;;;;;;5048279;28;20019;-69
2022/01/03 03:05:02;;;;;;;;;;;9.40;99.90;;;;;;5051273;28;19996;-69
2022/01/03 03:07:28;;;;;;;;;;;9.40;99.90;;;;;;5049474;28;20566;-69
2022/01/03 03:09:54;;;;;;;;;;;9.40;99.90;;;;;;5033988;28;19916;-69
2022/01/03 03:12:20;;;;;;;;;;;9.30;99.90;;;;;;5047925;28;19909;-69
2022/01/03 03:14:46;;;;;;;;;;;9.40;99.90;;;;;;5050764;28;20292;-69
2022/01/03 03:17:12;;;;;;;;;;;9.40;99.90;;;;;;5031914;28;19917;-69
2022/01/03 03:19:53;;;;;;;;;;;9.40;99.90;;;;;;5051240;28;19923;-69
2022/01/03 03:22:18;;;;;;;;;;;9.30;99.90;;;;;;5048129;28;19916;-69
2022/01/03 03:24:44;;;;;;;;;;;9.30;99.90;;;;;;5050561;28;19967;-69
2022/01/03 03:27:10;;;;;;;;;;;9.30;99.90;;;;;;5048262;28;19916;-69
2022/01/03 03:29:41;;;;;;;;;;;9.30;99.90;;;;;;5046113;28;19927;-69
2022/01/03 03:32:06;;;;;;;;;;;9.30;99.90;;;;;;5047878;28;19913;-69
2022/01/03 03:34:32;;;;;;;;;;;9.30;99.90;;;;;;5050384;28;19921;-69
2022/01/03 03:36:57;;;;;;;;;;;9.30;99.90;;;;;;5030652;28;19928;-69
2022/01/03 03:39:24;;;;;;;;;;;9.30;99.90;;;;;;5054850;28;19912;-69
2022/01/03 03:41:49;;;;;;;;;;;9.30;99.90;;;;;;5049045;28;19916;-69
2022/01/03 03:44:14;;;;;;;;;;;9.30;99.90;;;;;;5031619;28;19913;-69
2022/01/03 03:46:40;;;;;;;;;;;9.20;99.90;;;;;;5047936;28;19928;-69
2022/01/03 03:49:06;;;;;;;;;;;9.30;99.90;;;;;;5049392;28;20051;-69
2022/01/03 03:51:38;;;;;;;;;;;9.30;99.90;;;;;;5048573;28;21253;-69
2022/01/03 03:54:03;;;;;;;;;;;9.20;99.90;;;;;;5046367;28;19912;-69
2022/01/03 03:56:29;;;;;;;;;;;9.30;99.90;;;;;;5047252;28;20453;-69
2022/01/03 03:58:54;;;;;;;;;;;9.30;99.90;;;;;;5048108;28;19948;-69
2022/01/03 04:01:20;;;;;;;;;;;9.20;99.90;;;;;;5049355;28;19917;-69
2022/01/03 04:03:45;;;;;;;;;;;9.20;99.90;;;;;;5044426;28;20012;-69
2022/01/03 04:06:11;;;;;;;;;;;9.20;99.90;;;;;;5045828;28;19917;-69
2022/01/03 04:08:36;;;;;;;;;;;9.30;99.90;;;;;;5049959;28;19913;-69
2022/01/03 04:11:02;;;;;;;;;;;9.20;99.90;;;;;;5049745;28;19991;-69
2022/01/03 04:13:27;;;;;;;;;;;9.20;99.90;;;;;;5048035;28;19931;-69
2022/01/03 04:15:53;;;;;;;;;;;9.20;99.90;;;;;;5047516;28;19966;-69
2022/01/03 04:18:18;;;;;;;;;;;9.20;99.90;;;;;;5049292;28;19917;-70
2022/01/03 04:20:44;;;;;;;;;;;9.20;99.90;;;;;;5048062;28;20314;-70
2022/01/03 04:23:09;;;;;;;;;;;9.20;99.90;;;;;;5033054;28;19935;-69
2022/01/03 04:25:35;;;;;;;;;;;9.20;99.90;;;;;;5044800;28;19912;-69
2022/01/03 04:28:00;;;;;;;;;;;9.20;99.90;;;;;;5049786;28;19916;-69
2022/01/03 04:30:26;;;;;;;;;;;9.20;99.90;;;;;;5045797;28;20015;-69
2022/01/03 04:32:51;;;;;;;;;;;9.20;99.90;;;;;;5049997;28;20289;-69
2022/01/03 04:35:17;;;;;;;;;;;9.20;99.90;;;;;;5044608;28;19916;-69
2022/01/03 04:37:42;;;;;;;;;;;9.20;99.90;;;;;;5049249;28;19928;-69
2022/01/03 04:40:08;;;;;;;;;;;9.20;99.90;;;;;;5047748;28;20301;-69
2022/01/03 04:42:33;;;;;;;;;;;9.20;99.90;;;;;;5031194;28;20475;-69
2022/01/03 04:45:00;;;;;;;;;;;9.20;99.90;;;;;;5045655;28;19923;-69
2022/01/03 04:47:26;;;;;;;;;;;9.20;99.90;;;;;;5055127;28;20446;-69
2022/01/03 04:49:51;;;;;;;;;;;9.20;99.90;;;;;;5048253;28;19995;-69
2022/01/03 04:52:17;;;;;;;;;;;9.20;99.90;;;;;;5049679;28;19962;-69
2022/01/03 04:54:43;;;;;;;;;;;9.20;99.90;;;;;;5047252;28;19916;-69
2022/01/03 04:57:08;;;;;;;;;;;9.20;99.90;;;;;;5049272;28;19913;-69
2022/01/03 04:59:34;;;;;;;;;;;9.20;99.90;;;;;;5050297;28;19921;-69
2022/01/03 05:02:03;;;;;;;;;;;9.20;99.90;;;;;;5046723;28;19979;-68
2022/01/03 05:04:28;;;;;;;;;;;9.20;99.90;;;;;;5032442;28;19913;-69
2022/01/03 05:06:54;;;;;;;;;;;9.20;99.90;;;;;;5046753;28;20331;-69
2022/01/03 05:09:19;;;;;;;;;;;9.10;99.90;;;;;;5049042;28;19925;-69
2022/01/03 05:11:45;;;;;;;;;;;9.10;99.90;;;;;;5046850;28;19913;-69
2022/01/03 05:14:10;;;;;;;;;;;9.10;99.90;;;;;;5050089;28;19916;-69
2022/01/03 05:16:36;;;;;;;;;;;9.10;99.90;;;;;;5052076;28;19917;-69
2022/01/03 05:19:02;;;;;;;;;;;9.10;99.90;;;;;;5052210;28;19970;-69
2022/01/03 05:21:27;;;;;;;;;;;9.10;99.90;;;;;;5050576;28;19919;-69
2022/01/03 05:23:53;;;;;;;;;;;9.10;99.90;;;;;;5052786;28;19923;-69
2022/01/03 05:26:18;;;;;;;;;;;9.10;99.90;;;;;;5050133;28;19913;-70
2022/01/03 05:28:45;;;;;;;;;;;9.10;99.90;;;;;;5053259;28;19940;-69
2022/01/03 05:31:12;;;;;;;;;;;9.10;99.90;;;;;;5048772;28;19917;-69
2022/01/03 05:33:38;;;;;;;;;;;9.10;99.90;;;;;;5051343;28;20000;-69
2022/01/03 05:36:03;;;;;;;;;;;9.10;99.90;;;;;;5050949;28;19996;-69
2022/01/03 05:38:29;;;;;;;;;;;9.10;99.90;;;;;;5035053;28;19987;-69
2022/01/03 05:40:54;;;;;;;;;;;9.10;99.90;;;;;;5048993;28;19924;-69
2022/01/03 05:43:20;;;;;;;;;;;9.10;99.90;;;;;;5047996;28;19936;-69
2022/01/03 05:45:46;;;;;;;;;;;9.10;99.90;;;;;;5033959;28;19990;-69
2022/01/03 05:48:11;;;;;;;;;;;9.10;99.90;;;;;;5049537;28;19913;-69
2022/01/03 05:50:36;;;;;;;;;;;9.10;99.90;;;;;;5052679;28;20300;-69
2022/01/03 05:53:02;;;;;;;;;;;9.10;99.90;;;;;;5055567;28;19963;-69
2022/01/03 05:55:28;;;;;;;;;;;9.00;99.90;;;;;;5051552;28;20246;-69
2022/01/03 05:57:54;;;;;;;;;;;9.10;99.90;;;;;;5049677;28;19958;-69
2022/01/03 06:00:21;;;;;;;;;;;9.10;99.90;;;;;;5050537;28;19919;-69
2022/01/03 06:02:46;;;;;;;;;;;9.00;99.90;;;;;;5049213;28;19913;-69
2022/01/03 06:05:40;;;;;;;;;;;9.00;99.90;;;;;;5067382;28;19921;-69
2022/01/03 06:07:58;;;;;;;;;;;9.10;99.90;;;;;;5045368;28;19920;-69
2022/01/03 06:10:24;;;;;;;;;;;9.10;99.90;;;;;;5050856;28;19921;-69
2022/01/03 06:12:49;;;;;;;;;;;9.00;99.90;;;;;;5047359;28;19928;-69
2022/01/03 06:15:15;;;;;;;;;;;9.00;99.90;;;;;;5051120;28;19913;-69
2022/01/03 06:17:42;;;;;;;;;;;9.00;99.90;;;;;;5052346;28;19921;-69
2022/01/03 06:20:07;;;;;;;;;;;9.10;99.90;;;;;;5048320;28;19923;-69
2022/01/03 06:22:33;;;;;;;;;;;9.10;99.90;;;;;;5052385;28;20465;-69
2022/01/03 06:24:58;;;;;;;;;;;9.10;99.90;;;;;;5047222;28;20453;-69
2022/01/03 06:27:24;;;;;;;;;;;9.10;99.90;;;;;;5049195;28;19967;-69
2022/01/03 06:29:49;;;;;;;;;;;9.00;99.90;;;;;;5046912;28;19970;-69
2022/01/03 06:32:15;;;;;;;;;;;9.10;99.90;;;;;;5050162;28;19948;-69
2022/01/03 06:34:40;;;;;;;;;;;9.00;99.90;;;;;;5034507;28;19929;-70
2022/01/03 06:37:06;;;;;;;;;;;9.00;99.90;;;;;;5066266;28;19931;-69
2022/01/03 06:39:31;;;;;;;;;;;9.00;99.90;;;;;;5047573;28;20015;-69
2022/01/03 06:41:57;;;;;;;;;;;9.00;99.90;;;;;;5052014;28;19909;-69
2022/01/03 06:44:22;;;;;;;;;;;9.00;99.90;;;;;;5044609;28;19921;-69
2022/01/03 06:46:48;;;;;;;;;;;9.10;99.90;;;;;;5047402;28;19920;-69
2022/01/03 06:49:14;;;;;;;;;;;9.00;99.90;;;;;;5049285;28;19921;-69
2022/01/03 06:51:39;;;;;;;;;;;9.10;99.90;;;;;;5056945;28;19955;-69
2022/01/03 06:54:06;;;;;;;;;;;9.10;99.90;;;;;;5049570;28;19909;-69
2022/01/03 06:56:32;;;;;;;;;;;9.10;99.90;;;;;;5047699;28;19939;-69
2022/01/03 06:58:57;;;;;;;;;;;9.10;99.90;;;;;;5051313;28;20417;-69
2022/01/03 07:01:23;;;;;;;;;;;9.00;99.90;;;;;;5048506;28;19916;-69
2022/01/03 07:03:49;;;;;;;;;;;9.10;99.90;;;;;;5046909;28;20369;-69
2022/01/03 07:06:14;;;;;;;;;;;9.00;99.90;;;;;;5048119;28;19923;-69
2022/01/03 07:08:40;;;;;;;;;;;9.00;99.90;;;;;;5046904;28;20011;-69
2022/01/03 07:11:05;;;;;;;;;;;9.00;99.90;;;;;;5048884;28;19917;-69
2022/01/03 07:13:40;;;;;;;;;;;9.10;99.90;;;;;;5050963;28;20235;-69
2022/01/03 07:18:56;;;;;;;;;;;9.00;99.90;;;;;;5051495;28;20336;-69
2022/01/03 07:21:31;;;;;;;;;;;9.10;99.90;;;;;;5047900;28;19920;-69
2022/01/03 07:23:57;;;;;;;;;;;9.00;99.90;;;;;;5049240;28;19916;-69
2022/01/03 07:26:26;;;;;;;;;;;9.00;99.90;;;;;;5048547;28;19921;-69
2022/01/03 07:28:52;;;;;;;;;;;9.10;99.90;;;;;;5049858;28;19951;-69
2022/01/03 07:31:18;;;;;;;;;;;9.10;99.90;;;;;;5051174;28;19978;-69
2022/01/03 07:33:44;;;;;;;;;;;9.00;99.90;;;;;;5046872;28;19921;-69
2022/01/03 07:36:09;;;;;;;;;;;9.10;99.90;;;;;;5048471;28;19923;-69
2022/01/03 07:38:35;;;;;;;;;;;9.10;99.90;;;;;;5048314;28;19917;-69
2022/01/03 07:41:03;;;;;;;;;;;9.00;99.90;;;;;;5051143;28;19917;-69
2022/01/03 07:43:29;;;;;;;;;;;9.00;99.90;;;;;;5047741;28;19968;-69
2022/01/03 07:45:54;;;;;;;;;;;9.10;99.90;;;;;;5036484;28;19924;-69
2022/01/03 07:48:20;;;;;;;;;;;9.00;99.90;;;;;;5026722;28;20115;-69
2022/01/03 07:50:45;;;;;;;;;;;9.00;99.90;;;;;;5049359;28;19928;-69
2022/01/03 07:53:11;;;;;;;;;;;9.00;99.90;;;;;;5047339;28;19927;-69
2022/01/03 07:55:36;;;;;;;;;;;9.00;99.90;;;;;;5049880;28;19967;-69
2022/01/03 07:58:03;;;;;;;;;;;9.10;99.90;;;;;;5048527;28;20377;-69
2022/01/03 08:00:28;;;;;;;;;;;9.00;99.90;;;;;;5048953;28;20415;-69
2022/01/03 08:02:54;;;;;;;;;;;9.00;99.90;;;;;;5045033;28;19935;-69
2022/01/03 08:05:19;;;;;;;;;;;9.00;99.90;;;;;;5049924;28;19965;-69
2022/01/03 08:07:45;;;;;;;;;;;9.00;99.90;;;;;;5047940;28;19920;-69
2022/01/03 08:10:11;;;;;;;;;;;9.10;99.90;;;;;;5049352;28;19916;-69
2022/01/03 08:12:37;;;;;;;;;;;9.10;99.90;;;;;;5046757;28;19928;-69
2022/01/03 08:15:06;;;;;;;;;;;9.10;99.90;;;;;;5049058;28;19963;-69
2022/01/03 08:17:32;;;;;;;;;;;9.10;99.90;;;;;;5047000;28;19920;-69
2022/01/03 08:19:57;;;;;;;;;;;9.10;99.90;;;;;;5049635;28;19923;-69
2022/01/03 08:22:23;;;;;;;;;;;9.10;99.90;;;;;;5050175;28;19944;-69
2022/01/03 08:24:48;;;;;;;;;;;9.10;99.80;;;;;;5047711;28;19927;-69
2022/01/03 08:27:14;;;;;;;;;;;9.10;99.90;;;;;;5030289;28;19913;-69
2022/01/03 08:29:39;;;;;;;;;;;9.10;99.90;;;;;;5047269;28;19912;-69
2022/01/03 08:32:05;;;;;;;;;;;9.10;99.90;;;;;;5049797;28;20297;-69
2022/01/03 08:34:30;;;;;;;;;;;9.10;99.90;;;;;;5047563;28;20580;-69
2022/01/03 08:36:56;;;;;;;;;;;9.10;99.90;;;;;;5048818;28;19916;-69
2022/01/03 08:39:22;;;;;;;;;;;9.10;99.90;;;;;;5043376;28;19912;-69
2022/01/03 08:41:47;;;;;;;;;;;9.10;99.90;;;;;;5047399;28;19913;-69
2022/01/03 08:44:13;;;;;;;;;;;9.10;99.80;;;;;;5045871;28;19921;-69
2022/01/03 08:46:38;;;;;;;;;;;9.10;99.80;;;;;;5047545;28;19971;-69
2022/01/03 08:49:04;;;;;;;;;;;9.10;99.90;;;;;;5043158;28;20317;-69
2022/01/03 08:51:30;;;;;;;;;;;9.10;99.80;;;;;;5053268;28;19913;-69
2022/01/03 08:53:55;;;;;;;;;;;9.10;99.80;;;;;;5049250;28;19974;-69
2022/01/03 08:56:21;;;;;;;;;;;9.10;99.90;;;;;;5050317;28;19917;-70
2022/01/03 08:58:47;;;;;;;;;;;9.10;99.80;;;;;;5050756;28;20374;-69
2022/01/03 09:01:12;;;;;;;;;;;9.10;99.80;;;;;;5051567;28;20311;-69
2022/01/03 09:03:38;;;;;;;;;;;9.10;99.60;;;;;;5051976;28;19912;-69
2022/01/03 09:06:04;;;;;;;;;;;9.10;99.80;;;;;;5050952;28;19951;-69
2022/01/03 09:08:30;;;;;;;;;;;9.10;99.80;;;;;;5052403;28;20320;-69
2022/01/03 09:10:56;;;;;;;;;;;9.10;99.70;;;;;;5051405;28;19925;-69
2022/01/03 09:13:22;;;;;;;;;;;9.10;99.70;;;;;;5034737;28;19913;-69
2022/01/03 09:15:48;;;;;;;;;;;9.10;99.80;;;;;;5052597;28;19912;-69
2022/01/03 09:18:17;;;;;;;;;;;9.10;99.70;;;;;;5050900;28;20305;-69
2022/01/03 09:20:43;;;;;;;;;;;9.10;99.80;;;;;;5051758;28;19913;-69
2022/01/03 09:23:15;;;;;;;;;;;9.10;99.70;;;;;;5052362;28;20423;-69
2022/01/03 09:30:53;;;;;;;;;;;9.20;99.60;;;;;;5049715;28;20450;-69
2022/01/03 09:33:18;;;;;;;;;;;9.20;99.50;;;;;;5052636;28;19913;-69
2022/01/03 09:35:44;;;;;;;;;;;9.20;99.50;;;;;;5050674;28;19916;-69
2022/01/03 09:38:10;;;;;;;;;;;9.20;99.50;;;;;;5054712;28;19963;-69
2022/01/03 09:40:37;;;;;;;;;;;9.30;99.50;;;;;;5052909;28;19909;-69
2022/01/03 09:43:02;;;;;;;;;;;9.30;99.40;;;;;;5048965;28;20245;-69
2022/01/03 09:45:32;;;;;;;;;;;9.30;99.30;;;;;;5052744;28;19921;-69
2022/01/03 09:47:59;;;;;;;;;;;9.30;99.30;;;;;;5047468;28;19919;-69
2022/01/03 09:50:24;;;;;;;;;;;9.30;99.30;;;;;;5051688;28;19917;-69
2022/01/03 09:52:50;;;;;;;;;;;9.40;99.30;;;;;;5047671;28;20516;-69
2022/01/03 09:55:16;;;;;;;;;;;9.40;99.20;;;;;;5049276;28;20019;-69
2022/01/03 09:57:45;;;;;;;;;;;9.40;99.20;;;;;;5044909;28;19928;-69
2022/01/03 10:00:12;;;;;;;;;;;9.50;99.10;;;;;;5052195;28;20004;-69
2022/01/03 10:02:38;;;;;;;;;;;9.50;99.00;;;;;;5047456;28;19922;-69
2022/01/03 10:05:05;;;;;;;;;;;9.60;99.00;;;;;;5051086;28;19970;-69
2022/01/03 10:07:31;;;;;;;;;;;9.60;98.90;;;;;;5050125;28;21500;-69
2022/01/03 10:09:57;;;;;;;;;;;9.60;98.90;;;;;;5055317;28;19947;-69
2022/01/03 10:12:22;;;;;;;;;;;9.50;98.90;;;;;;5045655;28;19967;-69
2022/01/03 10:14:48;;;;;;;;;;;9.50;99.00;;;;;;5050616;28;19913;-69
2022/01/03 10:17:13;;;;;;;;;;;9.50;99.00;;;;;;5030348;28;19917;-69
2022/01/03 10:19:49;;;;;;;;;;;9.60;99.00;;;;;;5051752;28;20145;-69
2022/01/03 10:22:25;;;;;;;;;;;9.50;98.90;;;;;;5048468;28;20353;-69
2022/01/03 10:24:50;;;;;;;;;;;9.60;99.00;;;;;;5057421;28;20153;-69
2022/01/03 10:27:16;;;;;;;;;;;9.60;99.20;;;;;;5054411;28;19917;-69
2022/01/03 10:29:42;;;;;;;;;;;9.70;98.80;;;;;;5050412;28;19939;-69
2022/01/03 10:32:10;;;;;;;;;;;9.70;98.70;;;;;;5047836;28;19920;-69
2022/01/03 10:34:36;;;;;;;;;;;9.70;98.70;;;;;;5045909;28;19913;-69
2022/01/03 10:37:09;;;;;;;;;;;9.70;98.70;;;;;;5049580;28;19924;-69
2022/01/03 10:39:35;;;;;;;;;;;9.80;98.70;;;;;;5048405;28;19921;-69
2022/01/03 10:42:12;;;;;;;;;;;9.70;98.70;;;;;;5048689;28;20367;-70
2022/01/03 10:44:40;;;;;;;;;;;9.70;98.60;;;;;;5032695;28;19967;-69
2022/01/03 10:47:08;;;;;;;;;;;9.70;98.90;;;;;;5049135;28;19917;-70
2022/01/03 10:49:34;;;;;;;;;;;9.80;98.60;;;;;;5046527;28;19921;-69
2022/01/03 10:52:13;;;;;;;;;;;9.80;98.60;;;;;;5048834;28;19995;-69
2022/01/03 10:54:38;;;;;;;;;;;9.80;98.60;;;;;;5043598;28;20323;-69
2022/01/03 10:57:04;;;;;;;;;;;9.90;98.50;;;;;;5050563;28;19919;-69
2022/01/03 10:59:31;;;;;;;;;;;9.90;98.40;;;;;;5031801;28;19975;-69
2022/01/03 11:01:56;;;;;;;;;;;9.90;98.30;;;;;;5054997;28;19913;-69
2022/01/03 11:04:36;;;;;;;;;;;9.90;98.30;;;;;;5047562;28;19935;-69
2022/01/03 11:13:01;;;;;;;;;;;10.00;98.20;;;;;;5046920;28;20270;-69
2022/01/03 11:15:27;;;;;;;;;;;9.90;98.30;;;;;;5049361;28;20053;-69
2022/01/03 11:17:52;;;;;;;;;;;9.90;98.30;;;;;;5051338;28;20378;-69
2022/01/03 11:20:21;;;;;;;;;;;9.90;98.20;;;;;;5049406;28;20354;-70
2022/01/03 11:22:48;;;;;;;;;;;9.90;98.30;;;;;;5052422;28;19920;-69
2022/01/03 11:25:14;;;;;;;;;;;10.00;98.40;;;;;;5045479;28;20011;-69
2022/01/03 11:27:40;;;;;;;;;;;10.00;98.30;;;;;;5050587;28;20053;-69
2022/01/03 11:30:07;;;;;;;;;;;10.00;98.30;;;;;;5045211;28;19917;-69
2022/01/03 11:32:32;;;;;;;;;;;10.00;98.40;;;;;;5047927;28;19913;-69
2022/01/03 11:34:59;;;;;;;;;;;10.00;98.40;;;;;;5046065;28;19913;-69
2022/01/03 11:37:25;;;;;;;;;;;10.00;98.40;;;;;;5043545;28;19913;-69
2022/01/03 11:39:51;;;;;;;;;;;10.00;98.40;;;;;;5046045;28;19928;-69
2022/01/03 11:42:20;;;;;;;;;;;10.00;98.40;;;;;;5060979;28;20360;-69
2022/01/03 11:44:46;;;;;;;;;;;10.00;98.30;;;;;;5052473;28;20457;-70
2022/01/03 11:47:12;;;;;;;;;;;10.00;98.30;;;;;;5046904;28;20003;-69
2022/01/03 11:49:37;;;;;;;;;;;10.00;98.30;;;;;;5045905;28;19919;-70
2022/01/03 11:52:11;;;;;;;;;;;10.00;98.30;;;;;;5047532;28;20216;-69
2022/01/03 11:54:37;;;;;;;;;;;10.00;98.30;;;;;;5051357;28;19936;-69
2022/01/03 11:57:12;;;;;;;;;;;10.00;98.30;;;;;;5046666;28;21276;-69
2022/01/03 12:05:09;;;;;;;;;;;10.00;98.20;;;;;;5051213;28;19969;-70
2022/01/03 12:07:52;;;;;;;;;;;10.00;98.30;;;;;;5047178;28;19917;-69
2022/01/03 12:10:17;;;;;;;;;;;10.00;98.30;;;;;;5045966;28;20350;-69
2022/01/03 12:12:44;;;;;;;;;;;10.00;98.40;;;;;;5047870;28;19919;-69
2022/01/03 12:15:29;;;;;;;;;;;10.10;98.40;;;;;;5043342;28;19948;-69
2022/01/03 12:17:56;;;;;;;;;;;10.10;98.40;;;;;;5046652;28;20003;-70
2022/01/03 12:20:36;;;;;;;;;;;10.00;98.20;;;;;;5056216;28;19913;-69
2022/01/03 12:23:02;;;;;;;;;;;10.10;98.20;;;;;;5045723;28;19916;-70
2022/01/03 12:25:28;;;;;;;;;;;10.10;98.20;;;;;;5041727;28;20031;-70
2022/01/03 12:27:58;;;;;;;;;;;10.10;98.20;;;;;;5030257;28;19920;-70
2022/01/03 12:30:27;;;;;;;;;;;10.10;98.20;;;;;;5050842;28;19917;-69
2022/01/03 12:33:06;;;;;;;;;;;10.10;98.30;;;;;;5027357;28;19921;-70
2022/01/03 12:35:34;;;;;;;;;;;10.10;98.30;;;;;;5045695;28;19971;-69
2022/01/03 12:38:02;;;;;;;;;;;10.10;98.40;;;;;;5047204;28;19931;-69
2022/01/03 12:40:32;;;;;;;;;;;10.10;98.30;;;;;;5047386;28;20660;-70
2022/01/03 12:42:57;;;;;;;;;;;10.10;98.40;;;;;;5045016;28;20489;-70
2022/01/03 12:45:29;;;;;;;;;;;10.10;98.40;;;;;;5052569;28;19912;-69
2022/01/03 12:50:35;;;;;;;;;;;10.10;98.40;;;;;;5046887;28;20013;-69
2022/01/03 12:53:02;;;;;;;;;;;10.00;98.30;;;;;;5049913;28;19940;-69
2022/01/03 12:55:36;;;;;;;;;;;10.00;98.40;;;;;;5046160;28;20373;-70
2022/01/03 12:58:22;;;;;;;;;;;10.00;98.50;;;;;;5049301;28;20362;-69
2022/01/03 13:00:47;;;;;;;;;;;10.00;98.50;;;;;;5008026;28;19921;-70
2022/01/03 13:03:25;;;;;;;;;;;10.00;98.50;;;;;;5048359;28;20380;-69
2022/01/03 13:06:13;;;;;;;;;;;10.00;98.60;;;;;;5043085;28;19917;-70
2022/01/03 13:08:40;;;;;;;;;;;9.90;98.60;;;;;;5047317;28;19966;-70
2022/01/03 13:11:08;;;;;;;;;;;9.90;98.60;;;;;;5047403;28;19921;-69
2022/01/03 13:13:34;;;;;;;;;;;9.90;98.70;;;;;;5044785;28;20388;-69
2022/01/03 13:15:59;;;;;;;;;;;9.90;98.80;;;;;;5044211;28;20298;-69
2022/01/03 13:18:25;;;;;;;;;;;9.90;98.90;;;;;;5047870;28;19954;-69
2022/01/03 13:20:57;;;;;;;;;;;9.80;98.80;;;;;;5041403;28;19917;-69
2022/01/03 13:23:25;;;;;;;;;;;9.80;98.90;;;;;;5048428;28;20011;-69
2022/01/03 13:26:00;;;;;;;;;;;9.90;98.90;;;;;;5041790;28;19940;-70
2022/01/03 13:28:26;;;;;;;;;;;9.80;98.90;;;;;;5044802;28;20354;-70
2022/01/03 13:30:59;;;;;;;;;;;9.80;98.90;;;;;;5041974;28;19917;-69
2022/01/03 13:33:24;;;;;;;;;;;9.80;98.90;;;;;;5045910;28;19909;-70
2022/01/03 13:35:59;;;;;;;;;;;9.80;99.00;;;;;;5044910;28;20668;-70
2022/01/03 13:38:25;;;;;;;;;;;9.80;99.00;;;;;;5033702;28;19944;-69
2022/01/03 13:40:51;;;;;;;;;;;9.70;99.00;;;;;;5046685;28;19912;-70
2022/01/03 13:43:18;;;;;;;;;;;9.70;99.00;;;;;;5031784;28;20293;-69
2022/01/03 13:51:07;;;;;;;;;;;9.70;99.10;;;;;;5044425;28;19927;-69
2022/01/03 13:53:32;;;;;;;;;;;9.70;99.10;;;;;;5049904;28;19960;-69
2022/01/03 13:55:59;;;;;;;;;;;9.70;99.10;;;;;;5046909;28;19912;-70
2022/01/03 13:58:25;;;;;;;;;;;9.70;99.10;;;;;;5046474;28;19923;-70
2022/01/03 14:00:56;;;;;;;;;;;9.70;99.20;;;;;;5048008;28;20359;-69
2022/01/03 14:03:22;;;;;;;;;;;9.70;99.20;;;;;;5029457;28;19927;-69
2022/01/03 14:05:48;;;;;;;;;;;9.60;99.40;;;;;;5049608;28;19927;-69
2022/01/03 14:08:15;;;;;;;;;;;9.70;99.20;;;;;;5028762;28;19917;-69
2022/01/03 14:10:45;;;;;;;;;;;9.70;99.20;;;;;;5031407;28;19920;-69
2022/01/03 14:13:12;;;;;;;;;;;9.60;99.10;;;;;;5046011;28;19920;-69
2022/01/03 14:15:57;;;;;;;;;;;9.60;99.20;;;;;;5048790;28;19917;-69
2022/01/03 14:18:32;;;;;;;;;;;9.60;99.20;;;;;;5046499;28;19913;-69
2022/01/03 14:21:33;;;;;;;;;;;9.60;99.10;;;;;;5047897;28;19921;-69
2022/01/03 14:24:05;;;;;;;;;;;9.60;99.20;;;;;;4955563;28;20017;-69
2022/01/03 14:26:31;;;;;;;;;;;9.50;99.20;;;;;;5033975;28;19936;-69
2022/01/03 14:29:07;;;;;;;;;;;9.50;99.10;;;;;;5029663;28;20058;-69
2022/01/03 14:31:45;;;;;;;;;;;9.50;99.20;;;;;;5044071;28;19913;-69
2022/01/03 14:34:10;;;;;;;;;;;9.50;99.20;;;;;;5050682;28;20829;-69
2022/01/03 14:36:37;;;;;;;;;;;9.50;99.20;;;;;;5048483;28;19916;-69
2022/01/03 14:39:03;;;;;;;;;;;9.50;99.30;;;;;;5030490;28;19917;-69
2022/01/03 14:41:28;;;;;;;;;;;9.50;99.20;;;;;;5047590;28;19917;-69
2022/01/03 14:44:02;;;;;;;;;;;9.50;99.20;;;;;;5027783;28;20013;-69
2022/01/03 14:46:32;;;;;;;;;;;9.50;99.30;;;;;;5045115;28;20297;-69
2022/01/03 14:48:58;;;;;;;;;;;9.50;99.30;;;;;;5026911;28;20408;-69
2022/01/03 14:51:34;;;;;;;;;;;9.50;99.30;;;;;;5035304;28;19963;-69
2022/01/03 14:54:17;;;;;;;;;;;9.50;99.30;;;;;;5043373;28;19917;-69
2022/01/03 14:56:43;;;;;;;;;;;9.50;99.40;;;;;;5049606;28;19917;-69
2022/01/03 14:59:10;;;;;;;;;;;9.40;99.30;;;;;;5046334;28;19917;-69